Edinboro, Pennsylvania
Current Conditions -  °F | °C
As of 7:51 PM on Friday 24 Oct 2014 (Local Time) from KERI Reporting Station
Clear Clear  
Wind Chill: 50°   Ceiling: Unl
Heat Index: 50°   Visibility: 9mi
Dew Point: 43°   Wind: 5mph
Humidity: 77%   Direction: 190°S
Pressure: 29.99"   Gusts: NA
Location:  41.88°N, 80.13°W
Report Text: KERI 242351Z 19004KT 9SM CLR 10/06 A2999 RMK AO2 SLP161 T01000061 10144 20094 51002
Loading
Personal Weather Stations






























Interactive Weather Map New forecast layout! Learn more

10-Day Weather Forecast

Advertisements
Track Severe Weather on mobile